Time;durP1;ratioP1;P1;durP2;ratioP2;P2;SDS_P1;SDS_P2;PMS_P1;PMS_P2;Temp;Humidity;BMP_temperature;BMP_pressure;BME280_temperature;BME280_humidity;BME280_pressure;Samples;Min_cycle;Max_cycle;Signal;HPM_P1;HPM_P2
2021/11/25 00:02:19;;;;;;;28.30;17.17;;;8.10;99.90;;;;;;5134722;28;20084;-72
2021/11/25 00:04:44;;;;;;;27.60;16.50;;;8.00;99.90;;;;;;5106889;27;20052;-72
2021/11/25 00:07:10;;;;;;;22.75;14.70;;;8.10;99.90;;;;;;5133511;27;20153;-83
2021/11/25 00:09:37;;;;;;;29.73;16.95;;;8.10;99.90;;;;;;5116447;27;20027;-84
2021/11/25 00:12:03;;;;;;;28.15;16.15;;;8.10;99.90;;;;;;5105233;28;20028;-83
2021/11/25 00:14:28;;;;;;;26.75;16.52;;;8.10;99.90;;;;;;5129112;27;20046;-81
2021/11/25 00:16:54;;;;;;;30.85;15.93;;;8.10;99.90;;;;;;5114602;27;20035;-83
2021/11/25 00:19:20;;;;;;;28.20;16.58;;;8.00;99.90;;;;;;5102943;27;20031;-83
2021/11/25 00:21:45;;;;;;;28.42;16.73;;;8.00;99.90;;;;;;5092190;28;20035;-81
2021/11/25 00:24:11;;;;;;;28.30;16.52;;;8.00;99.90;;;;;;5088281;27;20481;-84
2021/11/25 00:26:37;;;;;;;27.30;17.45;;;8.00;99.90;;;;;;5109351;27;20043;-82
2021/11/25 00:29:04;;;;;;;27.98;16.73;;;8.00;99.90;;;;;;5108160;28;20047;-79
2021/11/25 00:31:29;;;;;;;27.65;16.70;;;8.00;99.90;;;;;;5085324;27;20031;-65
2021/11/25 00:33:55;;;;;;;29.90;18.13;;;8.00;99.90;;;;;;5103647;27;20331;-75
2021/11/25 00:36:21;;;;;;;30.33;17.15;;;7.90;99.90;;;;;;5099606;28;20489;-66
2021/11/25 00:38:47;;;;;;;30.73;17.17;;;7.90;99.90;;;;;;5099331;27;20528;-68
2021/11/25 00:41:13;;;;;;;33.13;18.75;;;7.90;99.90;;;;;;5096996;28;20520;-65
2021/11/25 00:43:39;;;;;;;33.83;17.50;;;8.00;99.90;;;;;;5119866;27;20069;-71
2021/11/25 00:46:04;;;;;;;29.73;19.13;;;7.90;99.90;;;;;;5096638;27;20031;-67
2021/11/25 00:48:30;;;;;;;30.55;18.20;;;7.90;99.90;;;;;;5105795;28;20020;-66
2021/11/25 00:50:56;;;;;;;31.90;18.90;;;7.90;99.90;;;;;;5120031;27;20072;-70
2021/11/25 00:53:21;;;;;;;35.50;20.25;;;7.90;99.90;;;;;;5125919;27;20038;-68
2021/11/25 00:55:47;;;;;;;34.75;18.48;;;7.90;99.90;;;;;;5114554;27;20024;-67
2021/11/25 00:58:13;;;;;;;28.67;17.67;;;7.90;99.90;;;;;;5095640;28;20036;-71
2021/11/25 01:00:38;;;;;;;33.65;17.88;;;7.80;99.90;;;;;;5098965;27;20024;-72
2021/11/25 01:03:04;;;;;;;40.28;20.33;;;7.90;99.90;;;;;;5124985;27;20080;-74
2021/11/25 01:05:30;;;;;;;39.10;20.25;;;7.80;99.90;;;;;;5102907;27;20484;-74
2021/11/25 01:07:55;;;;;;;34.47;19.33;;;7.80;99.90;;;;;;5096856;27;20027;-66
2021/11/25 01:10:23;;;;;;;32.75;18.58;;;7.80;99.90;;;;;;5109489;27;20059;-68
2021/11/25 01:12:50;;;;;;;38.30;20.10;;;7.80;99.90;;;;;;5113308;27;20482;-67
2021/11/25 01:15:17;;;;;;;34.15;18.85;;;7.80;99.90;;;;;;5123545;27;20046;-69
2021/11/25 01:17:43;;;;;;;39.85;20.88;;;7.90;99.90;;;;;;5107369;27;20035;-68
2021/11/25 01:20:13;;;;;;;32.28;19.13;;;7.80;99.90;;;;;;5112719;28;20431;-82
2021/11/25 01:22:39;;;;;;;35.85;19.58;;;7.80;99.90;;;;;;5124009;27;20555;-80
2021/11/25 01:25:05;;;;;;;38.63;19.38;;;7.80;99.90;;;;;;5111766;27;20034;-82
2021/11/25 01:27:31;;;;;;;37.33;19.65;;;7.70;99.90;;;;;;5098145;28;20031;-78
2021/11/25 01:29:57;;;;;;;33.35;18.83;;;7.70;99.90;;;;;;5122393;27;20185;-81
2021/11/25 01:32:22;;;;;;;35.95;19.30;;;7.80;99.90;;;;;;5082239;27;20034;-82
2021/11/25 01:34:48;;;;;;;38.88;20.08;;;7.70;99.90;;;;;;5118727;27;20035;-81
2021/11/25 01:37:14;;;;;;;32.28;20.25;;;7.70;99.90;;;;;;5100613;27;20023;-80
2021/11/25 01:39:39;;;;;;;34.83;19.83;;;7.70;99.90;;;;;;5091200;28;20031;-81
2021/11/25 01:42:05;;;;;;;38.58;20.50;;;7.60;99.90;;;;;;5115649;28;20032;-78
2021/11/25 01:44:30;;;;;;;37.17;20.67;;;7.70;99.90;;;;;;5116049;27;20023;-80
2021/11/25 01:47:00;;;;;;;41.22;20.00;;;7.60;99.90;;;;;;5117457;27;20035;-79
2021/11/25 01:49:26;;;;;;;42.40;22.48;;;7.60;99.90;;;;;;5120927;27;20597;-81
2021/11/25 01:51:51;;;;;;;39.97;21.10;;;7.50;99.90;;;;;;5103689;28;20020;-75
2021/11/25 01:54:17;;;;;;;43.20;20.95;;;7.50;99.90;;;;;;5138291;27;20038;-77
2021/11/25 01:56:44;;;;;;;40.35;21.42;;;7.50;99.90;;;;;;5101682;27;20024;-74
2021/11/25 01:59:09;;;;;;;38.53;20.60;;;7.50;99.90;;;;;;5115265;27;20039;-76
2021/11/25 02:01:35;;;;;;;45.10;20.52;;;7.40;99.90;;;;;;5112325;27;20068;-76
2021/11/25 02:04:02;;;;;;;38.15;20.05;;;7.40;99.90;;;;;;5096558;27;20096;-69
2021/11/25 02:06:28;;;;;;;35.53;19.85;;;7.40;99.90;;;;;;5098966;27;20373;-68
2021/11/25 02:08:54;;;;;;;44.53;20.95;;;7.40;99.90;;;;;;5109688;27;20115;-68
2021/11/25 02:11:19;;;;;;;37.13;22.30;;;7.40;99.90;;;;;;5128664;27;20076;-69
2021/11/25 02:13:45;;;;;;;39.80;20.58;;;7.40;99.90;;;;;;5103408;28;20497;-67
2021/11/25 02:16:11;;;;;;;43.10;20.83;;;7.50;99.90;;;;;;5100465;28;20030;-69
2021/11/25 02:18:36;;;;;;;42.38;21.85;;;7.40;99.90;;;;;;5124471;27;20042;-74
2021/11/25 02:21:04;;;;;;;41.45;22.05;;;7.40;99.90;;;;;;5120489;27;20038;-71
2021/11/25 02:23:30;;;;;;;36.55;19.63;;;7.40;99.90;;;;;;5114232;28;20408;-76
2021/11/25 02:25:56;;;;;;;41.47;21.67;;;7.50;99.90;;;;;;5125441;27;20027;-68
2021/11/25 02:28:25;;;;;;;39.22;21.10;;;7.50;99.90;;;;;;5087468;28;20035;-78
2021/11/25 02:30:51;;;;;;;44.28;22.73;;;7.50;99.90;;;;;;5093312;28;20044;-73
2021/11/25 02:33:17;;;;;;;46.40;21.13;;;7.50;99.90;;;;;;5085213;28;20047;-73
2021/11/25 02:35:43;;;;;;;43.08;20.92;;;7.50;99.90;;;;;;5118949;28;20035;-68
2021/11/25 02:38:10;;;;;;;45.17;22.10;;;7.50;99.90;;;;;;5125751;28;20496;-70
2021/11/25 02:40:39;;;;;;;46.45;20.75;;;7.50;99.90;;;;;;5113162;28;20012;-77
2021/11/25 02:43:08;;;;;;;45.03;21.95;;;7.50;99.90;;;;;;5112576;28;20068;-75
2021/11/25 02:45:53;;;;;;;39.50;20.30;;;7.50;99.90;;;;;;5102313;28;20034;-75
2021/11/25 02:48:21;;;;;;;47.67;22.02;;;7.50;99.90;;;;;;5119726;27;20024;-72
2021/11/25 02:50:48;;;;;;;47.33;23.02;;;7.50;99.90;;;;;;5106197;27;20259;-75
2021/11/25 02:53:22;;;;;;;43.13;21.98;;;7.50;99.90;;;;;;5123132;27;20083;-74
2021/11/25 02:55:48;;;;;;;40.97;21.27;;;7.50;99.90;;;;;;5114397;27;20038;-75
2021/11/25 02:58:14;;;;;;;46.15;21.70;;;7.50;99.90;;;;;;5134720;27;20051;-74
2021/11/25 03:00:43;;;;;;;40.58;21.90;;;7.40;99.90;;;;;;5112973;27;20756;-72
2021/11/25 03:03:13;;;;;;;45.05;21.15;;;7.40;99.90;;;;;;5115111;27;20487;-73
2021/11/25 03:05:41;;;;;;;41.92;21.08;;;7.40;99.90;;;;;;5114381;27;20048;-75
2021/11/25 03:08:07;;;;;;;50.47;23.25;;;7.40;99.90;;;;;;5092918;28;20016;-74
2021/11/25 03:10:43;;;;;;;41.60;22.23;;;7.40;99.90;;;;;;5092059;27;20051;-74
2021/11/25 03:13:11;;;;;;;44.60;23.05;;;7.30;99.90;;;;;;5101962;28;20023;-74
2021/11/25 03:15:38;;;;;;;41.50;22.20;;;7.30;99.90;;;;;;5109976;27;20049;-75
2021/11/25 03:18:05;;;;;;;45.40;22.42;;;7.20;99.90;;;;;;5097916;27;20129;-74
2021/11/25 03:20:30;;;;;;;45.28;22.10;;;7.10;99.90;;;;;;5102566;27;20084;-72
2021/11/25 03:22:57;;;;;;;46.38;23.30;;;7.10;99.90;;;;;;5106612;27;20023;-73
2021/11/25 03:25:23;;;;;;;44.00;22.63;;;7.10;99.90;;;;;;5116030;27;20043;-73
2021/11/25 03:27:50;;;;;;;43.83;21.90;;;7.00;99.90;;;;;;5108454;28;20488;-73
2021/11/25 03:30:16;;;;;;;47.03;21.65;;;7.00;99.90;;;;;;5092806;27;20043;-80
2021/11/25 03:32:42;;;;;;;51.38;24.23;;;7.00;99.90;;;;;;5110830;27;20026;-70
2021/11/25 03:35:08;;;;;;;43.92;21.90;;;7.00;99.90;;;;;;5095919;27;20023;-80
2021/11/25 03:37:35;;;;;;;43.63;21.85;;;6.90;99.90;;;;;;5106627;27;20032;-80
2021/11/25 03:40:01;;;;;;;44.08;23.10;;;7.00;99.90;;;;;;5104469;27;20110;-81
2021/11/25 03:42:26;;;;;;;49.53;23.45;;;7.00;99.90;;;;;;5096344;28;20452;-79
2021/11/25 03:44:53;;;;;;;51.67;23.85;;;7.00;99.90;;;;;;5094055;27;20052;-78
2021/11/25 03:47:19;;;;;;;47.10;23.63;;;7.00;99.90;;;;;;5094133;27;20497;-72
2021/11/25 03:49:45;;;;;;;49.53;23.42;;;7.00;99.90;;;;;;5101182;27;20023;-75
2021/11/25 03:52:10;;;;;;;49.38;23.35;;;6.90;99.90;;;;;;5083061;28;20072;-72
2021/11/25 03:54:36;;;;;;;49.75;23.55;;;7.00;99.90;;;;;;5100302;27;20033;-68
2021/11/25 03:57:02;;;;;;;48.30;23.20;;;7.00;99.90;;;;;;5121972;27;20385;-81
2021/11/25 03:59:27;;;;;;;45.88;22.95;;;7.00;99.90;;;;;;5107273;27;20039;-81
2021/11/25 04:01:53;;;;;;;48.60;23.40;;;7.10;99.90;;;;;;5115754;27;20027;-72
2021/11/25 04:04:19;;;;;;;47.97;24.17;;;7.10;99.90;;;;;;5091689;27;20027;-72
2021/11/25 04:06:44;;;;;;;53.70;24.80;;;7.10;99.90;;;;;;5116904;27;20118;-73
2021/11/25 04:09:11;;;;;;;41.75;21.75;;;7.00;99.90;;;;;;5118167;27;20102;-74
2021/11/25 04:11:37;;;;;;;55.10;25.58;;;7.10;99.90;;;;;;5102687;27;20046;-75
2021/11/25 04:14:03;;;;;;;47.03;23.52;;;7.10;99.90;;;;;;5080688;28;20023;-71
2021/11/25 04:16:30;;;;;;;50.25;26.15;;;7.10;99.90;;;;;;5095056;27;20051;-74
2021/11/25 04:18:56;;;;;;;51.97;24.15;;;7.00;99.90;;;;;;5090510;27;20047;-74
2021/11/25 04:21:22;;;;;;;57.42;26.73;;;7.00;99.90;;;;;;5091182;27;21186;-68
2021/11/25 04:23:48;;;;;;;51.35;24.80;;;7.00;99.90;;;;;;5087196;27;20114;-73
2021/11/25 04:26:13;;;;;;;56.65;25.67;;;6.90;99.90;;;;;;5092616;27;20576;-71
2021/11/25 04:28:39;;;;;;;51.22;24.90;;;6.90;99.90;;;;;;5104798;27;20030;-76
2021/11/25 04:36:34;;;;;;;48.03;22.70;;;7.00;99.90;;;;;;5098037;27;20136;-67
2021/11/25 04:39:00;;;;;;;47.50;22.88;;;7.00;99.90;;;;;;5102460;27;20039;-66
2021/11/25 04:41:25;;;;;;;52.67;24.85;;;6.90;99.90;;;;;;5100586;27;20034;-77
2021/11/25 04:43:51;;;;;;;53.83;23.98;;;6.80;99.90;;;;;;5111753;27;20027;-73
2021/11/25 04:46:17;;;;;;;54.35;24.88;;;6.80;99.90;;;;;;5097393;27;20046;-70
2021/11/25 04:48:42;;;;;;;58.28;25.10;;;6.80;99.90;;;;;;5088566;27;20023;-77
2021/11/25 04:51:08;;;;;;;50.53;24.70;;;6.90;99.90;;;;;;5094071;27;20370;-75
2021/11/25 04:53:34;;;;;;;50.65;22.98;;;6.90;99.90;;;;;;5094881;27;20040;-78
2021/11/25 04:55:59;;;;;;;55.17;23.55;;;6.90;99.90;;;;;;5105011;27;20019;-64
2021/11/25 04:58:25;;;;;;;47.28;23.80;;;6.90;99.90;;;;;;5100808;28;20040;-78
2021/11/25 05:00:51;;;;;;;57.97;25.27;;;6.90;99.90;;;;;;5126196;27;20487;-71
2021/11/25 05:03:17;;;;;;;52.72;24.10;;;6.90;99.90;;;;;;5092696;28;20068;-77
2021/11/25 05:05:43;;;;;;;47.00;23.30;;;7.00;99.90;;;;;;5098585;28;20027;-80
2021/11/25 05:08:09;;;;;;;56.40;24.48;;;6.90;99.90;;;;;;5103749;28;20072;-80
2021/11/25 05:10:35;;;;;;;51.83;24.33;;;7.00;99.90;;;;;;5100475;27;20030;-79
2021/11/25 05:13:01;;;;;;;52.60;24.38;;;7.00;99.90;;;;;;5093951;27;20027;-78
2021/11/25 05:15:27;;;;;;;51.72;23.15;;;7.00;99.90;;;;;;5098268;27;20033;-78
2021/11/25 05:17:53;;;;;;;53.28;23.20;;;7.00;99.90;;;;;;5093078;27;20043;-76
2021/11/25 05:20:19;;;;;;;50.75;23.08;;;7.10;99.90;;;;;;5094844;27;20461;-80
2021/11/25 05:22:45;;;;;;;52.47;23.70;;;7.10;99.90;;;;;;5145359;27;20038;-67
2021/11/25 05:25:13;;;;;;;57.45;24.73;;;7.10;99.90;;;;;;5138932;27;20028;-67
2021/11/25 05:27:39;;;;;;;55.65;23.85;;;7.10;99.90;;;;;;5117386;27;20031;-63
2021/11/25 05:30:06;;;;;;;50.90;23.40;;;7.10;99.90;;;;;;5107568;27;20076;-72
2021/11/25 05:32:32;;;;;;;47.08;23.00;;;7.10;99.90;;;;;;5120826;28;20024;-65
2021/11/25 05:34:57;;;;;;;49.33;23.58;;;7.20;99.90;;;;;;5119454;27;20015;-68
2021/11/25 05:37:23;;;;;;;48.45;21.52;;;7.20;99.90;;;;;;5134980;27;20453;-65
2021/11/25 05:39:49;;;;;;;53.65;25.52;;;7.30;99.90;;;;;;5141227;27;20028;-71
2021/11/25 05:42:14;;;;;;;48.13;22.00;;;7.30;99.90;;;;;;5111802;27;20068;-77
2021/11/25 05:44:40;;;;;;;43.45;21.58;;;7.40;99.90;;;;;;5124941;28;20024;-66
2021/11/25 05:47:06;;;;;;;41.95;20.85;;;7.30;99.90;;;;;;5119141;27;20068;-75
2021/11/25 05:49:32;;;;;;;50.40;21.73;;;7.40;99.90;;;;;;5096872;27;20474;-80
2021/11/25 05:51:58;;;;;;;49.38;22.27;;;7.50;99.90;;;;;;5101708;27;20481;-80
2021/11/25 05:54:24;;;;;;;44.53;21.88;;;7.50;99.90;;;;;;5112164;27;20027;-66
2021/11/25 05:56:50;;;;;;;42.65;21.67;;;7.60;99.90;;;;;;5098876;27;20027;-69
2021/11/25 05:59:16;;;;;;;43.85;22.60;;;7.60;99.90;;;;;;5086450;28;20486;-65
2021/11/25 06:01:41;;;;;;;44.67;21.23;;;7.60;99.90;;;;;;5124291;27;20477;-73
2021/11/25 06:04:07;;;;;;;42.85;20.70;;;7.70;99.90;;;;;;5091938;28;20463;-68
2021/11/25 06:06:32;;;;;;;50.97;21.15;;;7.70;99.90;;;;;;5117849;27;20027;-69
2021/11/25 06:08:58;;;;;;;41.40;21.08;;;7.80;99.90;;;;;;5079734;28;20055;-67
2021/11/25 06:11:24;;;;;;;42.10;20.50;;;7.70;99.90;;;;;;5125580;27;20487;-75
2021/11/25 06:13:49;;;;;;;39.80;20.05;;;7.80;99.90;;;;;;5107020;27;20534;-77
2021/11/25 06:16:15;;;;;;;43.17;21.20;;;7.90;99.90;;;;;;5130938;27;20027;-76
2021/11/25 06:18:40;;;;;;;43.97;21.05;;;7.90;99.90;;;;;;5127835;27;20046;-69
2021/11/25 06:21:07;;;;;;;37.53;19.08;;;7.90;99.90;;;;;;5116701;28;20028;-77
2021/11/25 06:23:32;;;;;;;40.35;19.88;;;7.90;99.90;;;;;;5100426;27;20542;-80
2021/11/25 06:25:58;;;;;;;33.45;18.58;;;7.90;99.90;;;;;;5086345;27;20032;-79
2021/11/25 06:28:24;;;;;;;39.70;19.73;;;7.90;99.90;;;;;;5089523;28;20031;-77
2021/11/25 06:30:50;;;;;;;43.97;18.60;;;7.90;99.90;;;;;;5097504;28;20047;-65
2021/11/25 06:33:16;;;;;;;32.70;16.13;;;8.00;99.90;;;;;;5109458;28;20024;-73
2021/11/25 06:35:41;;;;;;;26.52;13.82;;;8.00;99.90;;;;;;5127102;28;20032;-77
2021/11/25 06:38:07;;;;;;;16.50;9.63;;;8.10;99.90;;;;;;5118264;28;20035;-77
2021/11/25 06:40:34;;;;;;;13.55;8.82;;;8.10;99.90;;;;;;5107533;28;20035;-70
2021/11/25 06:43:02;;;;;;;13.73;7.20;;;8.10;99.90;;;;;;5134714;28;20036;-76
2021/11/25 06:45:28;;;;;;;7.65;4.43;;;8.20;99.90;;;;;;5116743;28;20016;-73
2021/11/25 06:47:54;;;;;;;8.40;4.82;;;8.20;99.90;;;;;;5095654;28;20036;-69
2021/11/25 06:50:22;;;;;;;5.65;4.10;;;8.20;99.90;;;;;;5110199;28;20050;-70
2021/11/25 06:52:48;;;;;;;9.80;4.78;;;8.30;99.90;;;;;;5110099;28;20035;-67
2021/11/25 06:55:15;;;;;;;8.30;3.67;;;8.40;99.90;;;;;;5118918;28;20493;-64
2021/11/25 06:57:42;;;;;;;8.63;3.83;;;8.40;99.90;;;;;;5104829;28;20031;-75
2021/11/25 07:00:10;;;;;;;7.95;3.33;;;8.50;99.90;;;;;;5108741;28;20028;-75
2021/11/25 07:02:37;;;;;;;6.82;3.65;;;8.50;99.90;;;;;;5090286;28;20027;-63
2021/11/25 07:05:05;;;;;;;4.38;3.40;;;8.60;99.90;;;;;;5090434;28;20114;-69
2021/11/25 07:07:31;;;;;;;3.70;2.33;;;8.60;99.90;;;;;;5107268;28;20036;-73
2021/11/25 07:09:57;;;;;;;5.20;3.30;;;8.60;99.90;;;;;;5106259;28;20563;-84
2021/11/25 07:12:23;;;;;;;6.28;3.15;;;8.70;99.90;;;;;;5094020;28;20383;-79
2021/11/25 07:14:48;;;;;;;3.05;1.75;;;8.70;99.90;;;;;;5081634;28;20497;-78
2021/11/25 07:17:14;;;;;;;3.17;1.80;;;8.60;99.90;;;;;;5090413;28;20074;-70
2021/11/25 07:19:40;;;;;;;8.32;2.75;;;8.50;99.90;;;;;;5090822;28;20048;-78
2021/11/25 07:22:05;;;;;;;3.47;1.73;;;8.40;99.90;;;;;;5105619;28;20058;-79
2021/11/25 07:24:31;;;;;;;6.03;1.55;;;8.30;99.90;;;;;;5097357;28;20036;-77
2021/11/25 07:26:57;;;;;;;3.00;1.42;;;8.20;99.90;;;;;;5105775;28;20030;-72
2021/11/25 07:29:23;;;;;;;8.15;2.58;;;8.10;99.90;;;;;;5092345;28;20517;-74
2021/11/25 07:31:49;;;;;;;6.63;1.95;;;8.00;99.90;;;;;;5139880;28;20177;-64
2021/11/25 07:34:15;;;;;;;5.00;1.25;;;8.10;99.90;;;;;;5133964;27;20023;-68
2021/11/25 07:36:40;;;;;;;5.10;1.80;;;8.10;99.90;;;;;;5143260;27;20058;-67
2021/11/25 07:39:06;;;;;;;3.97;1.10;;;8.10;99.90;;;;;;5152260;27;20035;-67
2021/11/25 07:41:32;;;;;;;6.47;1.10;;;8.10;99.90;;;;;;5118049;28;20138;-67
2021/11/25 07:43:58;;;;;;;7.57;1.35;;;8.10;99.90;;;;;;5123909;27;20065;-66
2021/11/25 07:46:24;;;;;;;12.98;1.73;;;8.20;99.90;;;;;;5105443;28;20044;-69
2021/11/25 07:48:50;;;;;;;6.57;1.60;;;8.10;99.90;;;;;;5104853;28;20037;-72
2021/11/25 07:51:16;;;;;;;6.97;3.35;;;8.20;99.90;;;;;;5119581;28;20028;-70
2021/11/25 07:53:42;;;;;;;5.07;1.20;;;8.20;99.90;;;;;;5140646;27;20354;-76
2021/11/25 07:56:08;;;;;;;5.15;1.55;;;8.20;99.90;;;;;;5117685;27;20090;-68
2021/11/25 07:58:33;;;;;;;10.27;2.72;;;8.20;99.90;;;;;;5130858;27;20046;-77
2021/11/25 08:00:59;;;;;;;7.75;1.50;;;8.30;99.90;;;;;;5115229;27;20110;-74
2021/11/25 08:03:25;;;;;;;9.02;1.98;;;8.30;99.90;;;;;;5125665;27;20051;-85
2021/11/25 08:05:52;;;;;;;4.43;1.23;;;8.30;99.90;;;;;;5115717;27;20034;-65
2021/11/25 08:08:18;;;;;;;4.55;1.40;;;8.20;99.90;;;;;;5107217;27;20401;-77
2021/11/25 08:10:44;;;;;;;7.50;1.23;;;8.30;99.90;;;;;;5124159;27;20030;-83
2021/11/25 08:13:10;;;;;;;14.70;1.20;;;8.30;99.90;;;;;;5128266;27;20040;-72
2021/11/25 08:15:35;;;;;;;3.55;0.90;;;8.30;99.90;;;;;;5123941;27;20392;-78
2021/11/25 08:18:02;;;;;;;5.65;1.60;;;8.30;99.90;;;;;;5104126;27;20043;-77
2021/11/25 08:20:28;;;;;;;4.22;0.98;;;8.30;99.90;;;;;;5099785;28;20024;-77
2021/11/25 08:22:55;;;;;;;4.63;1.10;;;8.30;99.90;;;;;;5101625;28;20432;-73
2021/11/25 08:25:21;;;;;;;10.27;1.40;;;8.30;99.90;;;;;;5115105;28;20051;-77
2021/11/25 08:27:49;;;;;;;8.02;1.30;;;8.40;99.90;;;;;;5086671;28;20031;-76
2021/11/25 08:30:16;;;;;;;7.18;1.48;;;8.50;99.90;;;;;;5107716;28;20052;-77
2021/11/25 08:32:42;;;;;;;12.27;1.55;;;8.40;99.90;;;;;;5101288;28;20028;-78
2021/11/25 08:35:08;;;;;;;7.03;1.58;;;8.50;99.90;;;;;;5102782;28;20028;-77
2021/11/25 08:37:34;;;;;;;9.32;2.75;;;8.50;99.90;;;;;;5098828;28;20063;-79
2021/11/25 08:40:00;;;;;;;6.25;1.58;;;8.60;99.90;;;;;;5102348;28;20039;-77
2021/11/25 08:42:26;;;;;;;14.18;3.33;;;8.60;99.90;;;;;;5081551;28;20023;-76
2021/11/25 08:44:51;;;;;;;4.43;1.40;;;8.70;99.90;;;;;;5116975;28;20034;-79
2021/11/25 08:47:18;;;;;;;6.70;1.65;;;8.80;99.90;;;;;;5112291;28;20027;-79
2021/11/25 08:49:44;;;;;;;7.55;2.10;;;9.00;99.90;;;;;;5124353;28;20029;-82
2021/11/25 08:52:10;;;;;;;9.70;2.50;;;9.00;99.90;;;;;;5124009;28;20063;-79
2021/11/25 08:54:35;;;;;;;8.15;1.83;;;9.00;99.90;;;;;;5111575;28;20047;-80
2021/11/25 08:57:01;;;;;;;4.75;1.23;;;8.90;99.90;;;;;;5137350;28;20220;-79
2021/11/25 08:59:27;;;;;;;11.25;2.13;;;8.80;99.90;;;;;;5088954;28;20044;-74
2021/11/25 09:01:53;;;;;;;8.18;1.95;;;8.90;99.90;;;;;;5113676;28;20054;-73
2021/11/25 09:04:18;;;;;;;8.18;1.70;;;8.90;99.90;;;;;;5119868;28;20051;-81
2021/11/25 09:06:45;;;;;;;8.10;1.77;;;9.00;99.90;;;;;;5121653;28;20012;-80
2021/11/25 09:09:11;;;;;;;11.77;2.60;;;9.00;99.90;;;;;;5105607;28;20011;-79
2021/11/25 09:11:37;;;;;;;7.55;1.80;;;9.10;99.90;;;;;;5120306;28;20012;-76
2021/11/25 09:14:03;;;;;;;7.47;2.15;;;9.20;99.90;;;;;;5139348;28;20035;-74
2021/11/25 09:16:29;;;;;;;10.93;2.58;;;9.20;99.90;;;;;;5106095;28;20023;-78
2021/11/25 09:18:55;;;;;;;4.57;1.85;;;9.30;99.90;;;;;;5112610;28;20048;-73
2021/11/25 09:21:22;;;;;;;12.48;2.17;;;9.40;99.90;;;;;;5098816;28;20024;-74
2021/11/25 09:23:48;;;;;;;8.75;2.65;;;9.50;99.90;;;;;;5082027;28;20036;-75
2021/11/25 09:26:16;;;;;;;4.15;1.60;;;9.70;99.90;;;;;;5076044;28;20024;-75
2021/11/25 09:28:41;;;;;;;8.63;1.85;;;9.80;99.90;;;;;;5081713;28;20032;-77
2021/11/25 09:31:13;;;;;;;19.10;1.83;;;9.90;99.90;;;;;;5093153;28;20402;-71
2021/11/25 09:33:39;;;;;;;9.35;2.20;;;10.00;99.90;;;;;;5092068;28;20031;-75
2021/11/25 09:36:05;;;;;;;9.00;1.45;;;10.10;99.90;;;;;;5092313;28;20057;-73
2021/11/25 09:38:31;;;;;;;10.27;2.63;;;10.20;99.90;;;;;;5111926;28;20059;-71
2021/11/25 09:40:57;;;;;;;7.07;1.40;;;10.60;99.90;;;;;;5097367;28;20502;-74
2021/11/25 09:43:25;;;;;;;5.93;2.80;;;10.80;99.90;;;;;;5100477;28;20076;-73
2021/11/25 09:45:51;;;;;;;6.03;1.75;;;11.00;99.90;;;;;;5097753;28;20027;-76
2021/11/25 09:48:18;;;;;;;6.82;2.13;;;11.00;99.90;;;;;;5088998;28;20394;-72
2021/11/25 09:50:46;;;;;;;6.63;1.60;;;10.90;99.90;;;;;;5091855;28;20410;-73
2021/11/25 09:53:15;;;;;;;2.53;1.48;;;10.90;99.90;;;;;;5089503;28;20065;-70
2021/11/25 09:55:43;;;;;;;4.80;1.40;;;10.90;99.90;;;;;;5090107;28;20031;-73
2021/11/25 09:58:12;;;;;;;6.38;1.52;;;10.80;99.90;;;;;;5101860;28;20110;-74
2021/11/25 10:00:42;;;;;;;9.20;1.88;;;10.80;99.90;;;;;;5122397;28;20022;-70
2021/11/25 10:03:11;;;;;;;7.10;1.60;;;10.80;99.90;;;;;;5104647;28;20028;-75
2021/11/25 10:05:37;;;;;;;6.38;2.47;;;10.80;99.90;;;;;;5107809;28;20030;-73
2021/11/25 10:08:32;;;;;;;4.60;1.85;;;10.80;99.90;;;;;;5094817;28;20456;-79
2021/11/25 10:11:07;;;;;;;7.15;1.98;;;10.80;99.90;;;;;;5116654;28;20166;-80
2021/11/25 10:13:35;;;;;;;6.07;1.52;;;10.70;99.90;;;;;;5120360;28;20026;-77
2021/11/25 10:16:01;;;;;;;4.95;2.17;;;10.60;99.90;;;;;;5123327;28;20024;-77
2021/11/25 10:18:33;;;;;;;7.20;1.70;;;10.60;99.90;;;;;;5095329;28;20038;-80
2021/11/25 10:21:27;;;;;;;7.15;1.90;;;10.50;99.90;;;;;;5127770;28;20020;-76
2021/11/25 10:23:56;;;;;;;3.75;1.02;;;10.30;99.90;;;;;;5115033;28;20072;-67
2021/11/25 10:26:21;;;;;;;5.25;1.80;;;10.30;99.90;;;;;;5099649;28;20021;-74
2021/11/25 10:28:54;;;;;;;8.18;1.50;;;10.30;99.90;;;;;;5115768;28;20035;-73
2021/11/25 10:31:21;;;;;;;7.03;0.85;;;10.30;99.90;;;;;;5129343;28;20131;-79
2021/11/25 10:34:18;;;;;;;6.90;1.40;;;10.30;99.90;;;;;;5101743;28;20024;-70
2021/11/25 10:42:33;;;;;;;9.15;1.33;;;10.40;99.90;;;;;;5130397;28;20032;-77
2021/11/25 10:44:59;;;;;;;8.45;1.55;;;10.50;99.90;;;;;;5123498;28;20011;-80
2021/11/25 10:47:26;;;;;;;8.32;1.48;;;10.60;99.90;;;;;;5100688;28;20080;-69
2021/11/25 10:50:00;;;;;;;6.20;1.55;;;10.80;99.90;;;;;;5122769;28;20039;-77
2021/11/25 10:52:41;;;;;;;7.13;1.25;;;10.80;99.90;;;;;;5108039;28;20043;-78
2021/11/25 10:55:14;;;;;;;10.30;0.93;;;10.90;99.90;;;;;;5117433;28;20031;-74
2021/11/25 10:57:56;;;;;;;4.00;0.98;;;10.90;99.90;;;;;;5142663;28;20026;-66
2021/11/25 11:00:34;;;;;;;4.43;0.80;;;11.00;99.90;;;;;;5110088;28;20030;-65
2021/11/25 11:03:13;;;;;;;1.50;0.60;;;11.00;99.90;;;;;;5106932;28;20504;-64
2021/11/25 11:05:52;;;;;;;3.50;0.70;;;11.10;99.90;;;;;;5101697;28;20024;-67
2021/11/25 11:08:18;;;;;;;4.82;0.55;;;11.20;99.90;;;;;;5115874;27;20035;-65
2021/11/25 11:10:55;;;;;;;6.53;1.02;;;11.30;99.90;;;;;;5105058;27;20096;-70
2021/11/25 11:16:42;;;;;;;6.70;1.48;;;11.10;99.90;;;;;;5101051;28;20028;-67
2021/11/25 11:18:56;;;;;;;8.07;1.88;;;11.20;99.90;;;;;;5092618;27;20043;-68
2021/11/25 11:21:40;;;;;;;4.10;0.93;;;11.20;99.90;;;;;;5097623;28;20043;-68
2021/11/25 11:24:09;;;;;;;1.35;0.70;;;11.20;99.90;;;;;;5114787;27;20020;-74
2021/11/25 11:26:43;;;;;;;4.55;0.95;;;11.20;99.90;;;;;;5096995;27;20031;-70
2021/11/25 11:29:10;;;;;;;4.03;0.80;;;11.10;99.90;;;;;;5098822;27;20157;-73
2021/11/25 11:31:41;;;;;;;4.40;0.82;;;11.00;99.90;;;;;;5097851;27;20093;-66
2021/11/25 11:34:09;;;;;;;4.53;1.05;;;11.10;99.90;;;;;;5100014;27;20426;-70
2021/11/25 11:36:39;;;;;;;6.03;1.00;;;11.10;99.90;;;;;;5103470;27;20477;-76
2021/11/25 11:39:05;;;;;;;4.63;0.93;;;11.10;99.90;;;;;;5113028;27;20068;-71
2021/11/25 11:41:31;;;;;;;4.07;0.90;;;11.10;99.90;;;;;;5108883;28;20401;-69
2021/11/25 11:43:58;;;;;;;5.88;1.38;;;11.10;99.90;;;;;;5116735;27;20038;-72
2021/11/25 11:46:25;;;;;;;5.82;1.88;;;11.10;99.90;;;;;;5109315;27;20522;-72
2021/11/25 11:48:51;;;;;;;4.47;0.90;;;11.30;99.90;;;;;;5119875;27;20395;-72
2021/11/25 11:51:19;;;;;;;2.13;0.70;;;11.20;99.90;;;;;;5099382;28;20020;-71
2021/11/25 11:53:46;;;;;;;5.75;0.90;;;11.20;99.90;;;;;;5079716;28;20035;-70
2021/11/25 11:56:15;;;;;;;5.82;1.60;;;11.20;99.90;;;;;;5095727;27;20023;-72
2021/11/25 11:58:49;;;;;;;8.60;1.13;;;11.10;99.90;;;;;;5094664;28;20099;-71
2021/11/25 12:01:15;;;;;;;3.58;1.50;;;10.90;99.90;;;;;;5085275;27;20133;-64
2021/11/25 12:03:59;;;;;;;3.80;1.10;;;10.70;99.90;;;;;;5097168;28;20117;-66
2021/11/25 12:06:35;;;;;;;5.13;0.98;;;10.50;99.90;;;;;;5109518;27;20061;-70
2021/11/25 12:09:09;;;;;;;4.53;1.02;;;10.40;99.90;;;;;;5125429;27;20470;-69
2021/11/25 12:11:46;;;;;;;4.47;1.23;;;10.40;99.90;;;;;;5115280;27;20059;-74
2021/11/25 12:14:24;;;;;;;5.82;1.48;;;10.40;99.90;;;;;;5101569;27;20026;-73
2021/11/25 12:17:20;;;;;;;3.08;0.85;;;10.40;99.90;;;;;;5096397;28;20070;-74
2021/11/25 12:19:46;;;;;;;7.78;1.90;;;10.40;99.90;;;;;;5107574;27;20039;-74
2021/11/25 12:22:12;;;;;;;9.15;2.35;;;10.40;99.90;;;;;;5125717;27;20397;-68
2021/11/25 12:25:00;;;;;;;5.57;1.80;;;10.30;99.90;;;;;;5126625;27;20137;-71
2021/11/25 12:27:27;;;;;;;3.97;1.25;;;10.30;99.90;;;;;;5141169;27;20086;-70
2021/11/25 12:30:01;;;;;;;6.53;1.50;;;10.30;99.90;;;;;;5141249;27;20062;-67
2021/11/25 12:33:06;;;;;;;12.85;1.40;;;10.60;99.90;;;;;;5119138;27;20038;-66
2021/11/25 12:35:35;;;;;;;4.97;1.77;;;10.80;99.90;;;;;;5122855;27;20035;-66
2021/11/25 12:38:04;;;;;;;6.32;2.45;;;11.00;99.90;;;;;;5101093;28;20034;-71
2021/11/25 12:40:29;;;;;;;8.75;1.98;;;11.20;99.90;;;;;;5098448;27;20031;-68
2021/11/25 12:42:56;;;;;;;1.55;0.73;;;11.10;99.90;;;;;;5141779;27;20380;-66
2021/11/25 12:45:50;;;;;;;2.63;0.73;;;10.70;99.90;;;;;;5117686;28;20097;-68
2021/11/25 12:48:25;;;;;;;2.17;0.77;;;10.30;99.90;;;;;;5094551;27;20069;-66
2021/11/25 12:51:10;;;;;;;3.63;0.90;;;10.10;99.90;;;;;;5105128;27;20073;-65
2021/11/25 12:53:39;;;;;;;6.85;0.98;;;9.90;99.90;;;;;;5113720;27;20054;-67
2021/11/25 12:56:31;;;;;;;6.57;1.90;;;9.80;99.90;;;;;;5114682;28;20028;-65
2021/11/25 12:59:07;;;;;;;5.35;1.45;;;9.70;99.90;;;;;;5107889;28;20065;-78
2021/11/25 13:01:39;;;;;;;5.05;1.30;;;9.50;99.90;;;;;;5113382;27;20059;-68